Latest Weather Observations for Melville Water

IDW60901

Issued at 11:41 am WST Wednesday 27 July 2016 (issued every 10 minutes, with the page automatically refreshed every 10 minutes)

About weather observations | Map of Perth area stations | Latest observations for Perth area | Other Formats
Station Details ID: 009091 Name: INNER DOLPHIN PYLON Lat: -31.99 Lon: 115.83 Height: 0.0 m
Data from the previous 72 hours. | See also: Recent months at Melville Water
Date/Time
WST
Temp
°C
App
Temp
°C
Dew
Point
°C
Rel
Hum
%
Delta-T
°C
Wind Press
QNH
hPa
Press
MSL
hPa
Rain since
9am
mm
Dir  Spd
km/h
Gust
km/h
Spd
kts
Gust
kts
27/11:30am - - - - - ENE 15 19 8 10 - - -
27/11:00am - - - - - ENE 15 20 8 11 - - -
27/10:30am - - - - - ENE 15 19 8 10 - - -
27/10:00am - - - - - ENE 9 11 5 6 - - -
27/09:30am - - - - - ENE 9 13 5 7 - - -
27/09:00am - - - - - ENE 11 15 6 8 - - -
27/08:30am - - - - - E 15 19 8 10 - - -
27/08:00am - - - - - ENE 11 13 6 7 - - -
27/07:30am - - - - - ENE 13 17 7 9 - - -
27/07:00am - - - - - ENE 13 17 7 9 - - -
27/06:30am - - - - - E 7 11 4 6 - - -
27/06:00am - - - - - ENE 6 9 3 5 - - -
27/05:30am - - - - - E 6 7 3 4 - - -
27/05:00am - - - - - E 7 9 4 5 - - -
27/04:30am - - - - - ENE 7 9 4 5 - - -
27/04:00am - - - - - ESE 7 9 4 5 - - -
27/03:30am - - - - - E 9 11 5 6 - - -
27/03:00am - - - - - ESE 7 11 4 6 - - -
27/02:30am - - - - - ESE 7 9 4 5 - - -
27/02:00am - - - - - ESE 9 11 5 6 - - -
27/01:30am - - - - - ESE 7 7 4 4 - - -
27/01:00am - - - - - ESE 2 2 1 1 - - -
27/12:30am - - - - - ESE 4 6 2 3 - - -
27/12:00am - - - - - E 4 4 2 2 - - -
 
Date/Time
WST
Temp
°C
App
Temp
°C
Dew
Point
°C
Rel
Hum
%
Delta-T
°C
Wind Press
QNH
hPa
Press
MSL
hPa
Rain since
9am
mm
Dir  Spd
km/h
Gust
km/h
Spd
kts
Gust
kts
26/11:30pm - - - - - SE 9 11 5 6 - - -
26/11:00pm - - - - - SE 6 7 3 4 - - -
26/10:30pm - - - - - SE 7 9 4 5 - - -
26/10:00pm - - - - - SSE 4 6 2 3 - - -
26/09:30pm - - - - - SE 6 7 3 4 - - -
26/09:00pm - - - - - SSE 7 9 4 5 - - -
26/08:30pm - - - - - SSW 7 11 4 6 - - -
26/08:00pm - - - - - WSW 6 6 3 3 - - -
26/07:30pm - - - - - WSW 6 7 3 4 - - -
26/07:00pm - - - - - SW 7 9 4 5 - - -
26/06:30pm - - - - - SW 7 9 4 5 - - -
26/06:00pm - - - - - S 7 9 4 5 - - -
26/05:30pm - - - - - SSW 11 15 6 8 - - -
26/05:00pm - - - - - SW 13 17 7 9 - - -
26/04:30pm - - - - - SW 11 13 6 7 - - -
26/04:00pm - - - - - WSW 11 13 6 7 - - -
26/03:30pm - - - - - SSW 11 17 6 9 - - -
26/03:00pm - - - - - SW 11 13 6 7 - - -
26/02:30pm - - - - - WSW 9 11 5 6 - - -
26/02:00pm - - - - - WSW 13 15 7 8 - - -
26/01:30pm - - - - - WSW 6 9 3 5 - - -
26/01:00pm - - - - - WNW 4 6 2 3 - - -
26/12:30pm - - - - - NNW 2 4 1 2 - - -
26/12:00pm - - - - - NW 2 4 1 2 - - -
26/11:30am - - - - - CALM 0 2 0 1 - - -
26/11:00am - - - - - CALM 0 0 0 0 - - -
26/10:30am - - - - - ESE 6 6 3 3 - - -
26/10:00am - - - - - NE 7 7 4 4 - - -
26/09:30am - - - - - ENE 11 11 6 6 - - -
26/09:00am - - - - - E 7 9 4 5 - - -
26/08:30am - - - - - E 11 13 6 7 - - -
26/08:00am - - - - - NE 6 9 3 5 - - -
26/07:30am - - - - - NE 11 13 6 7 - - -
26/07:00am - - - - - E 7 11 4 6 - - -
26/06:30am - - - - - ENE 6 7 3 4 - - -
26/06:00am - - - - - NNE 4 6 2 3 - - -
26/05:30am - - - - - NE 4 7 2 4 - - -
26/05:00am - - - - - NE 6 7 3 4 - - -
26/04:30am - - - - - NE 6 9 3 5 - - -
26/04:00am - - - - - ENE 6 9 3 5 - - -
26/03:30am - - - - - ENE 7 9 4 5 - - -
26/03:00am - - - - - NE 9 11 5 6 - - -
26/02:30am - - - - - ENE 6 7 3 4 - - -
26/02:00am - - - - - ENE 6 7 3 4 - - -
26/01:30am - - - - - ENE 6 7 3 4 - - -
26/01:00am - - - - - NNE 7 9 4 5 - - -
26/12:30am - - - - - NNE 7 11 4 6 - - -
26/12:00am - - - - - NE 11 13 6 7 - - -
 
Date/Time
WST
Temp
°C
App
Temp
°C
Dew
Point
°C
Rel
Hum
%
Delta-T
°C
Wind Press
QNH
hPa
Press
MSL
hPa
Rain since
9am
mm
Dir  Spd
km/h
Gust
km/h
Spd
kts
Gust
kts
25/11:30pm - - - - - NE 9 11 5 6 - - -
25/11:00pm - - - - - ENE 11 13 6 7 - - -
25/10:30pm - - - - - E 7 9 4 5 - - -
25/10:00pm - - - - - E 7 7 4 4 - - -
25/09:30pm - - - - - E 4 6 2 3 - - -
25/09:00pm - - - - - NE 4 6 2 3 - - -
25/08:30pm - - - - - W 2 4 1 2 - - -
25/08:00pm - - - - - SSW 4 6 2 3 - - -
25/07:30pm - - - - - WSW 4 6 2 3 - - -
25/07:00pm - - - - - SE 2 6 1 3 - - -
25/06:30pm - - - - - S 11 13 6 7 - - -
25/06:00pm - - - - - S 13 15 7 8 - - -
25/05:30pm - - - - - SSW 15 19 8 10 - - -
25/05:00pm - - - - - SSW 17 22 9 12 - - -
25/04:30pm - - - - - SSW 11 15 6 8 - - -
25/04:00pm - - - - - SW 9 13 5 7 - - -
25/03:30pm - - - - - SSW 15 17 8 9 - - -
25/03:00pm - - - - - SW 9 15 5 8 - - -
25/02:30pm - - - - - SSE 9 15 5 8 - - -
25/02:00pm - - - - - SE 9 13 5 7 - - -
25/01:30pm - - - - - SE 7 13 4 7 - - -
25/01:00pm - - - - - S 9 17 5 9 - - -
25/12:30pm - - - - - SE 11 17 6 9 - - -
25/12:00pm - - - - - SE 11 19 6 10 - - -
25/11:30am - - - - - SSE 15 30 8 16 - - -
25/11:00am - - - - - SE 13 19 7 10 - - -
25/10:30am - - - - - SE 11 20 6 11 - - -
25/10:00am - - - - - NNE 4 6 2 3 - - -
25/09:30am - - - - - NNE 4 6 2 3 - - -
25/09:00am - - - - - NE 6 7 3 4 - - -
25/08:30am - - - - - E 7 11 4 6 - - -
25/08:00am - - - - - ESE 11 13 6 7 - - -
25/07:30am - - - - - E 9 11 5 6 - - -
25/07:00am - - - - - E 9 11 5 6 - - -
25/06:30am - - - - - NE 6 7 3 4 - - -
25/06:00am - - - - - ENE 4 6 2 3 - - -
25/05:30am - - - - - ESE 6 7 3 4 - - -
25/05:00am - - - - - SE 6 7 3 4 - - -
25/04:30am - - - - - SE 7 9 4 5 - - -
25/04:00am - - - - - SE 4 6 2 3 - - -
25/03:30am - - - - - E 9 11 5 6 - - -
25/03:00am - - - - - E 9 9 5 5 - - -
25/02:30am - - - - - E 6 9 3 5 - - -
25/02:00am - - - - - N 4 6 2 3 - - -
25/01:30am - - - - - NNE 9 11 5 6 - - -
25/01:00am - - - - - NE 11 13 6 7 - - -
25/12:30am - - - - - NE 11 11 6 6 - - -
25/12:00am - - - - - NE 7 11 4 6 - - -
 
Date/Time
WST
Temp
°C
App
Temp
°C
Dew
Point
°C
Rel
Hum
%
Delta-T
°C
Wind Press
QNH
hPa
Press
MSL
hPa
Rain since
9am
mm
Dir  Spd
km/h
Gust
km/h
Spd
kts
Gust
kts
24/11:30pm - - - - - NE 9 11 5 6 - - -
24/11:00pm - - - - - ENE 7 9 4 5 - - -
24/10:30pm - - - - - NE 4 6 2 3 - - -
24/10:00pm - - - - - N 4 4 2 2 - - -
24/09:30pm - - - - - ENE 2 4 1 2 - - -
24/09:00pm - - - - - SE 4 6 2 3 - - -
24/08:30pm - - - - - SE 9 11 5 6 - - -
24/08:00pm - - - - - ESE 9 11 5 6 - - -
24/07:30pm - - - - - S 9 9 5 5 - - -
24/07:00pm - - - - - S 9 9 5 5 - - -
24/06:30pm - - - - - SSE 9 11 5 6 - - -
24/06:00pm - - - - - SE 13 17 7 9 - - -
24/05:30pm - - - - - S 17 24 9 13 - - -
24/05:00pm - - - - - S 24 32 13 17 - - -
24/04:30pm - - - - - S 24 33 13 18 - - -
24/04:00pm - - - - - S 19 26 10 14 - - -
24/03:30pm - - - - - S 17 28 9 15 - - -
24/03:00pm - - - - - S 13 20 7 11 - - -
24/02:30pm - - - - - S 17 22 9 12 - - -
24/02:00pm - - - - - S 17 20 9 11 - - -
24/01:30pm - - - - - SE 7 13 4 7 - - -
24/01:00pm - - - - - SE 7 11 4 6 - - -
24/12:30pm - - - - - W 4 7 2 4 - - -
24/12:00pm - - - - - WSW 2 4 1 2 - - -

Latest Capital City Observations: Canberra | Sydney | Melbourne | Brisbane | Adelaide | Perth | Hobart | Darwin

Other Formats:

Comma delimited format used in spreadsheet applications
http://www.bom.gov.au/fwo/IDW60901/IDW60901.95620.axf

JavaScript Object Notation format (JSON) in row-major order
http://www.bom.gov.au/fwo/IDW60901/IDW60901.95620.json